Time;durP1;ratioP1;P1;durP2;ratioP2;P2;SDS_P1;SDS_P2;PMS_P1;PMS_P2;Temp;Humidity;BMP_temperature;BMP_pressure;BME280_temperature;BME280_humidity;BME280_pressure;Samples;Min_cycle;Max_cycle;Signal;HPM_P1;HPM_P2
2022/04/27 00:01:23;;;;;;;;;;;;;;;;;;5069305;28;19928;-72
2022/04/27 00:03:49;;;;;;;;;;;;;;;;;;5068041;28;19978;-70
2022/04/27 00:06:15;;;;;;;;;;;;;;;;;;5066444;28;19925;-72
2022/04/27 00:08:41;;;;;;;;;;;;;;;;;;5060389;28;19924;-72
2022/04/27 00:11:08;;;;;;;;;;;;;;;;;;5069402;28;19925;-72
2022/04/27 00:13:34;;;;;;;;;;;;;;;;;;5061023;28;19932;-71
2022/04/27 00:16:00;;;;;;;;;;;;;;;;;;5068442;28;19928;-71
2022/04/27 00:18:26;;;;;;;;;;;;;;;;;;5064937;28;19983;-72
2022/04/27 00:20:53;;;;;;;;;;;;;;;;;;5054878;28;19929;-72
2022/04/27 00:23:20;;;;;;;;;;;;;;;;;;5066210;28;20015;-72
2022/04/27 00:25:47;;;;;;;;;;;;;;;;;;5055303;28;19932;-72
2022/04/27 00:28:13;;;;;;;;;;;;;;;;;;5061104;28;19932;-72
2022/04/27 00:30:39;;;;;;;;;;;;;;;;;;5072818;28;19924;-72
2022/04/27 00:33:05;;;;;;;;;;;;;;;;;;5063353;28;19939;-71
2022/04/27 00:35:31;;;;;;;;;;;;;;;;;;5062169;28;19935;-71
2022/04/27 00:37:57;;;;;;;;;;;;;;;;;;5064043;28;20473;-72
2022/04/27 00:40:23;;;;;;;;;;;;;;;;;;5060068;28;19928;-71
2022/04/27 00:42:49;;;;;;;;;;;;;;;;;;5054823;28;19925;-72
2022/04/27 00:45:16;;;;;;;;;;;;;;;;;;5065888;28;19932;-71
2022/04/27 00:47:42;;;;;;;;;;;;;;;;;;5064528;28;19925;-71
2022/04/27 00:50:09;;;;;;;;;;;;;;;;;;5064539;28;20379;-70
2022/04/27 00:52:35;;;;;;;;;;;;;;;;;;5055724;28;19964;-71
2022/04/27 00:55:01;;;;;;;;;;;;;;;;;;5066206;28;20102;-72
2022/04/27 00:57:28;;;;;;;;;;;;;;;;;;5064667;28;19936;-70
2022/04/27 00:59:54;;;;;;;;;;;;;;;;;;5070234;28;19925;-70
2022/04/27 01:02:20;;;;;;;;;;;;;;;;;;5067451;28;19940;-71
2022/04/27 01:04:46;;;;;;;;;;;;;;;;;;5062989;28;20337;-71
2022/04/27 01:07:12;;;;;;;;;;;;;;;;;;5065986;28;19928;-70
2022/04/27 01:09:38;;;;;;;;;;;;;;;;;;5061844;28;20393;-70
2022/04/27 01:12:04;;;;;;;;;;;;;;;;;;5067134;28;20375;-70
2022/04/27 01:14:31;;;;;;;;;;;;;;;;;;5060362;28;19963;-69
2022/04/27 01:16:57;;;;;;;;;;;;;;;;;;5064063;28;20167;-70
2022/04/27 01:19:24;;;;;;;;;;;;;;;;;;5066971;28;19928;-70
2022/04/27 01:21:50;;;;;;;;;;;;;;;;;;5059706;28;19931;-70
2022/04/27 01:24:16;;;;;;;;;;;;;;;;;;5066149;28;19929;-70
2022/04/27 01:26:42;;;;;;;;;;;;;;;;;;5059751;28;19936;-70
2022/04/27 01:29:09;;;;;;;;;;;;;;;;;;5059433;28;19932;-70
2022/04/27 01:31:35;;;;;;;;;;;;;;;;;;5060045;28;19929;-69
2022/04/27 01:34:01;;;;;;;;;;;;;;;;;;5057963;28;20028;-70
2022/04/27 01:36:27;;;;;;;;;;;;;;;;;;5069558;28;19939;-70
2022/04/27 01:38:53;;;;;;;;;;;;;;;;;;5056519;28;20005;-71
2022/04/27 01:41:19;;;;;;;;;;;;;;;;;;5064327;28;19925;-70
2022/04/27 01:43:45;;;;;;;;;;;;;;;;;;5049740;28;19944;-70
2022/04/27 01:46:12;;;;;;;;;;;;;;;;;;5063442;28;20016;-69
2022/04/27 01:48:39;;;;;;;;;;;;;;;;;;5064973;28;19928;-71
2022/04/27 01:51:05;;;;;;;;;;;;;;;;;;5067902;28;19928;-70
2022/04/27 01:56:15;;;;;;;;;;;;;;;;;;5059443;28;19947;-70
2022/04/27 01:58:42;;;;;;;;;;;;;;;;;;5071034;28;19924;-69
2022/04/27 02:01:11;;;;;;;;;;;;;;;;;;5064451;28;20014;-70
2022/04/27 02:03:37;;;;;;;;;;;;;;;;;;5061217;28;19925;-70
2022/04/27 02:06:03;;;;;;;;;;;;;;;;;;5064781;28;20308;-68
2022/04/27 02:08:29;;;;;;;;;;;;;;;;;;5064359;28;19972;-72
2022/04/27 02:10:55;;;;;;;;;;;;;;;;;;5072623;28;20281;-71
2022/04/27 02:13:21;;;;;;;;;;;;;;;;;;5068603;28;19933;-72
2022/04/27 02:15:47;;;;;;;;;;;;;;;;;;5070009;28;19952;-71
2022/04/27 02:18:13;;;;;;;;;;;;;;;;;;5069541;28;20299;-72
2022/04/27 02:20:40;;;;;;;;;;;;;;;;;;5064557;28;19932;-71
2022/04/27 02:23:06;;;;;;;;;;;;;;;;;;5064865;28;19951;-71
2022/04/27 02:25:32;;;;;;;;;;;;;;;;;;5068590;28;20287;-70
2022/04/27 02:27:58;;;;;;;;;;;;;;;;;;5071449;28;19924;-71
2022/04/27 02:30:24;;;;;;;;;;;;;;;;;;5059331;28;20352;-72
2022/04/27 02:32:51;;;;;;;;;;;;;;;;;;5070455;28;19932;-71
2022/04/27 02:35:18;;;;;;;;;;;;;;;;;;5065284;28;20251;-70
2022/04/27 02:37:45;;;;;;;;;;;;;;;;;;5066706;28;19969;-71
2022/04/27 02:40:11;;;;;;;;;;;;;;;;;;5063308;28;19931;-72
2022/04/27 02:42:37;;;;;;;;;;;;;;;;;;5070178;28;19935;-72
2022/04/27 02:45:03;;;;;;;;;;;;;;;;;;5061559;28;19932;-72
2022/04/27 02:47:29;;;;;;;;;;;;;;;;;;5069765;28;19925;-72
2022/04/27 02:52:39;;;;;;;;;;;;;;;;;;5071749;28;19967;-70
2022/04/27 02:55:06;;;;;;;;;;;;;;;;;;5071228;28;20042;-71
2022/04/27 02:57:32;;;;;;;;;;;;;;;;;;5077170;28;20039;-71
2022/04/27 02:59:58;;;;;;;;;;;;;;;;;;5069719;28;19933;-69
2022/04/27 03:02:24;;;;;;;;;;;;;;;;;;5068892;28;19947;-72
2022/04/27 03:04:50;;;;;;;;;;;;;;;;;;5068721;28;19955;-71
2022/04/27 03:07:16;;;;;;;;;;;;;;;;;;5069418;28;20418;-71
2022/04/27 03:09:42;;;;;;;;;;;;;;;;;;5071577;28;19928;-70
2022/04/27 03:12:09;;;;;;;;;;;;;;;;;;5077550;28;20416;-69
2022/04/27 03:17:02;;;;;;;;;;;;;;;;;;5079523;28;19924;-75
2022/04/27 03:19:28;;;;;;;;;;;;;;;;;;5079466;28;19931;-75
2022/04/27 03:21:55;;;;;;;;;;;;;;;;;;5075859;28;19924;-76
2022/04/27 03:24:21;;;;;;;;;;;;;;;;;;5082813;28;19943;-74
2022/04/27 03:26:47;;;;;;;;;;;;;;;;;;5088134;28;19928;-74
2022/04/27 03:29:13;;;;;;;;;;;;;;;;;;5075301;28;20385;-75
2022/04/27 03:31:40;;;;;;;;;;;;;;;;;;5084725;28;20387;-75
2022/04/27 03:34:06;;;;;;;;;;;;;;;;;;5083645;28;19935;-76
2022/04/27 03:36:32;;;;;;;;;;;;;;;;;;5083147;28;19932;-77
2022/04/27 03:38:59;;;;;;;;;;;;;;;;;;5084194;28;19924;-75
2022/04/27 03:41:27;;;;;;;;;;;;;;;;;;5085676;28;20478;-76
2022/04/27 03:43:54;;;;;;;;;;;;;;;;;;5077819;28;20332;-75
2022/04/27 03:46:20;;;;;;;;;;;;;;;;;;5076796;28;19947;-77
2022/04/27 03:48:46;;;;;;;;;;;;;;;;;;5072430;28;20136;-77
2022/04/27 03:51:12;;;;;;;;;;;;;;;;;;5080720;28;20015;-79
2022/04/27 03:53:38;;;;;;;;;;;;;;;;;;5083863;28;19924;-76
2022/04/27 03:56:05;;;;;;;;;;;;;;;;;;5085684;28;19932;-73
2022/04/27 03:58:31;;;;;;;;;;;;;;;;;;5078858;28;19924;-78
2022/04/27 04:00:57;;;;;;;;;;;;;;;;;;5082774;28;20334;-75
2022/04/27 04:03:23;;;;;;;;;;;;;;;;;;5084386;28;19928;-76
2022/04/27 04:05:49;;;;;;;;;;;;;;;;;;5082675;28;20022;-76
2022/04/27 04:08:15;;;;;;;;;;;;;;;;;;5083967;28;19947;-77
2022/04/27 04:10:41;;;;;;;;;;;;;;;;;;5078995;28;20264;-76
2022/04/27 04:13:08;;;;;;;;;;;;;;;;;;5078839;28;19964;-75
2022/04/27 04:15:37;;;;;;;;;;;;;;;;;;5081205;28;19932;-75
2022/04/27 04:18:03;;;;;;;;;;;;;;;;;;5083776;28;19928;-76
2022/04/27 04:20:29;;;;;;;;;;;;;;;;;;5075107;28;19932;-73
2022/04/27 04:22:56;;;;;;;;;;;;;;;;;;5085583;28;19925;-73
2022/04/27 04:30:50;;;;;;;;;;;;;;;;;;5082358;28;19919;-76
2022/04/27 04:33:16;;;;;;;;;;;;;;;;;;5079339;28;19932;-76
2022/04/27 04:35:42;;;;;;;;;;;;;;;;;;5077023;28;20339;-76
2022/04/27 04:38:08;;;;;;;;;;;;;;;;;;5073342;28;19925;-76
2022/04/27 04:40:34;;;;;;;;;;;;;;;;;;5086818;28;19946;-78
2022/04/27 04:43:01;;;;;;;;;;;;;;;;;;5083300;28;19935;-76
2022/04/27 04:45:27;;;;;;;;;;;;;;;;;;5070973;28;19931;-77
2022/04/27 04:47:53;;;;;;;;;;;;;;;;;;5077174;28;19928;-73
2022/04/27 04:50:19;;;;;;;;;;;;;;;;;;5075921;28;20027;-73
2022/04/27 04:52:46;;;;;;;;;;;;;;;;;;5068290;28;19928;-76
2022/04/27 04:55:12;;;;;;;;;;;;;;;;;;5085124;28;19927;-76
2022/04/27 04:57:38;;;;;;;;;;;;;;;;;;5084536;28;19928;-76
2022/04/27 05:00:04;;;;;;;;;;;;;;;;;;5083988;28;19958;-74
2022/04/27 05:02:30;;;;;;;;;;;;;;;;;;5078033;28;20018;-75
2022/04/27 05:04:56;;;;;;;;;;;;;;;;;;5071279;28;19924;-76
2022/04/27 05:07:22;;;;;;;;;;;;;;;;;;5084314;28;20006;-72
2022/04/27 05:09:48;;;;;;;;;;;;;;;;;;4730874;28;10000383;-75
2022/04/27 05:12:15;;;;;;;;;;;;;;;;;;5080502;28;19935;-74
2022/04/27 05:14:41;;;;;;;;;;;;;;;;;;5082348;28;19928;-74
2022/04/27 05:17:07;;;;;;;;;;;;;;;;;;5077634;28;19995;-75
2022/04/27 05:19:33;;;;;;;;;;;;;;;;;;5068039;28;21150;-73
2022/04/27 05:22:00;;;;;;;;;;;;;;;;;;5070890;28;20351;-76
2022/04/27 05:24:26;;;;;;;;;;;;;;;;;;5077562;28;20387;-75
2022/04/27 05:26:52;;;;;;;;;;;;;;;;;;5083126;28;19985;-74
2022/04/27 05:32:04;;;;;;;;;;;;;;;;;;5077344;28;19923;-74
2022/04/27 05:34:33;;;;;;;;;;;;;;;;;;5080439;28;20015;-74
2022/04/27 05:36:59;;;;;;;;;;;;;;;;;;5077165;28;19959;-75
2022/04/27 05:39:25;;;;;;;;;;;;;;;;;;5077965;28;19928;-74
2022/04/27 05:41:51;;;;;;;;;;;;;;;;;;5079392;28;19928;-75
2022/04/27 05:44:17;;;;;;;;;;;;;;;;;;5072456;28;19928;-75
2022/04/27 05:46:44;;;;;;;;;;;;;;;;;;5073353;28;19928;-78
2022/04/27 05:49:10;;;;;;;;;;;;;;;;;;5071395;28;20344;-74
2022/04/27 05:51:36;;;;;;;;;;;;;;;;;;5077323;28;19928;-75
2022/04/27 05:54:02;;;;;;;;;;;;;;;;;;5078419;28;19928;-76
2022/04/27 05:56:28;;;;;;;;;;;;;;;;;;5075715;28;19932;-76
2022/04/27 05:58:54;;;;;;;;;;;;;;;;;;5076685;28;19932;-76
2022/04/27 06:01:21;;;;;;;;;;;;;;;;;;5078986;28;19938;-76
2022/04/27 06:03:47;;;;;;;;;;;;;;;;;;5079719;28;20026;-74
2022/04/27 06:06:13;;;;;;;;;;;;;;;;;;5078297;28;19928;-74
2022/04/27 06:08:39;;;;;;;;;;;;;;;;;;5078220;28;19932;-76
2022/04/27 06:11:05;;;;;;;;;;;;;;;;;;5074023;28;19951;-75
2022/04/27 06:13:31;;;;;;;;;;;;;;;;;;5080060;28;19935;-75
2022/04/27 06:15:57;;;;;;;;;;;;;;;;;;5078269;28;19928;-75
2022/04/27 06:18:23;;;;;;;;;;;;;;;;;;5075888;28;20651;-75
2022/04/27 06:20:52;;;;;;;;;;;;;;;;;;5079583;28;19928;-75
2022/04/27 06:23:18;;;;;;;;;;;;;;;;;;5068598;28;19943;-75
2022/04/27 06:25:47;;;;;;;;;;;;;;;;;;5082410;28;19952;-76
2022/04/27 06:28:13;;;;;;;;;;;;;;;;;;5073479;28;19929;-75
2022/04/27 06:30:39;;;;;;;;;;;;;;;;;;5077484;28;19939;-75
2022/04/27 06:33:05;;;;;;;;;;;;;;;;;;5067168;28;19982;-76
2022/04/27 06:35:31;;;;;;;;;;;;;;;;;;5081035;28;20356;-75
2022/04/27 06:37:58;;;;;;;;;;;;;;;;;;5075693;28;20461;-74
2022/04/27 06:40:24;;;;;;;;;;;;;;;;;;5078399;28;19928;-75
2022/04/27 06:42:51;;;;;;;;;;;;;;;;;;5069215;28;19959;-76
2022/04/27 06:45:17;;;;;;;;;;;;;;;;;;5077640;28;20373;-75
2022/04/27 06:47:43;;;;;;;;;;;;;;;;;;5077555;28;20466;-74
2022/04/27 06:50:11;;;;;;;;;;;;;;;;;;5075213;28;20283;-74
2022/04/27 06:52:38;;;;;;;;;;;;;;;;;;5089250;28;19935;-76
2022/04/27 06:55:04;;;;;;;;;;;;;;;;;;5082619;28;19928;-74
2022/04/27 06:57:30;;;;;;;;;;;;;;;;;;5086271;28;19928;-74
2022/04/27 06:59:56;;;;;;;;;;;;;;;;;;5077448;28;19928;-75
2022/04/27 07:02:22;;;;;;;;;;;;;;;;;;5087878;28;19939;-75
2022/04/27 07:04:55;;;;;;;;;;;;;;;;;;5084351;28;19947;-74
2022/04/27 07:07:21;;;;;;;;;;;;;;;;;;5080883;28;20385;-74
2022/04/27 07:09:47;;;;;;;;;;;;;;;;;;5085336;28;20167;-75
2022/04/27 07:12:13;;;;;;;;;;;;;;;;;;5086839;28;19924;-75
2022/04/27 07:14:40;;;;;;;;;;;;;;;;;;5095232;28;19925;-76
2022/04/27 07:17:06;;;;;;;;;;;;;;;;;;5090366;28;19932;-74
2022/04/27 07:19:32;;;;;;;;;;;;;;;;;;5089276;28;19928;-77
2022/04/27 07:21:59;;;;;;;;;;;;;;;;;;5085840;28;19932;-76
2022/04/27 07:24:25;;;;;;;;;;;;;;;;;;5090192;28;19928;-76
2022/04/27 07:26:52;;;;;;;;;;;;;;;;;;5075756;28;20465;-74
2022/04/27 07:29:18;;;;;;;;;;;;;;;;;;5080608;28;20379;-75
2022/04/27 07:31:45;;;;;;;;;;;;;;;;;;5095276;28;19928;-74
2022/04/27 07:34:11;;;;;;;;;;;;;;;;;;5095155;28;19936;-75
2022/04/27 07:36:37;;;;;;;;;;;;;;;;;;5096108;28;19924;-76
2022/04/27 07:39:03;;;;;;;;;;;;;;;;;;5096589;28;19928;-74
2022/04/27 07:41:29;;;;;;;;;;;;;;;;;;5082334;28;20026;-74
2022/04/27 07:43:56;;;;;;;;;;;;;;;;;;5090098;28;20019;-75
2022/04/27 07:46:22;;;;;;;;;;;;;;;;;;5082917;28;19928;-76
2022/04/27 07:48:48;;;;;;;;;;;;;;;;;;5070071;28;19928;-76
2022/04/27 07:51:14;;;;;;;;;;;;;;;;;;5080780;28;19948;-76
2022/04/27 07:53:40;;;;;;;;;;;;;;;;;;5081548;28;20354;-76
2022/04/27 07:56:06;;;;;;;;;;;;;;;;;;5082014;28;19928;-74
2022/04/27 07:58:32;;;;;;;;;;;;;;;;;;5078447;28;19929;-74
2022/04/27 08:01:00;;;;;;;;;;;;;;;;;;5075156;28;19935;-74
2022/04/27 08:03:26;;;;;;;;;;;;;;;;;;5069558;28;19979;-75
2022/04/27 08:05:52;;;;;;;;;;;;;;;;;;5095228;28;19923;-75
2022/04/27 08:08:18;;;;;;;;;;;;;;;;;;5107585;28;19928;-76
2022/04/27 08:10:44;;;;;;;;;;;;;;;;;;5077576;28;19946;-75
2022/04/27 08:13:10;;;;;;;;;;;;;;;;;;5071251;28;19931;-76
2022/04/27 08:15:37;;;;;;;;;;;;;;;;;;5076903;28;19939;-78
2022/04/27 08:18:03;;;;;;;;;;;;;;;;;;5080054;28;20207;-77
2022/04/27 08:23:13;;;;;;;;;;;;;;;;;;5079032;28;20404;-75
2022/04/27 08:25:39;;;;;;;;;;;;;;;;;;5077891;28;19935;-76
2022/04/27 08:28:06;;;;;;;;;;;;;;;;;;5074298;28;20170;-75
2022/04/27 08:30:32;;;;;;;;;;;;;;;;;;5079440;28;20400;-78
2022/04/27 08:32:59;;;;;;;;;;;;;;;;;;5076909;28;19936;-76
2022/04/27 08:35:25;;;;;;;;;;;;;;;;;;5074998;28;19957;-77
2022/04/27 08:37:52;;;;;;;;;;;;;;;;;;5077315;28;19928;-74
2022/04/27 08:40:18;;;;;;;;;;;;;;;;;;5080636;28;19935;-74
2022/04/27 08:42:44;;;;;;;;;;;;;;;;;;5083341;28;19939;-76
2022/04/27 08:45:10;;;;;;;;;;;;;;;;;;5067960;28;19954;-76
2022/04/27 08:47:36;;;;;;;;;;;;;;;;;;5074526;28;19928;-75
2022/04/27 08:50:02;;;;;;;;;;;;;;;;;;5067815;28;19928;-77
2022/04/27 08:52:28;;;;;;;;;;;;;;;;;;5081008;28;19928;-77
2022/04/27 08:54:54;;;;;;;;;;;;;;;;;;5085759;28;19928;-75
2022/04/27 08:57:21;;;;;;;;;;;;;;;;;;5084660;28;20119;-77
2022/04/27 08:59:47;;;;;;;;;;;;;;;;;;5083127;28;19928;-76
2022/04/27 09:02:13;;;;;;;;;;;;;;;;;;5074336;28;19928;-78
2022/04/27 09:04:39;;;;;;;;;;;;;;;;;;5077222;28;20128;-75
2022/04/27 09:07:05;;;;;;;;;;;;;;;;;;5081419;28;20154;-74
2022/04/27 09:09:31;;;;;;;;;;;;;;;;;;5080502;28;19928;-76
2022/04/27 09:11:57;;;;;;;;;;;;;;;;;;5071447;28;19944;-77
2022/04/27 09:14:23;;;;;;;;;;;;;;;;;;5082625;28;19959;-77
2022/04/27 09:22:16;;;;;;;;;;;;;;;;;;5071977;28;19923;-75
2022/04/27 09:24:43;;;;;;;;;;;;;;;;;;5064407;28;20391;-71
2022/04/27 09:27:09;;;;;;;;;;;;;;;;;;5063160;28;20501;-71
2022/04/27 09:29:35;;;;;;;;;;;;;;;;;;5060684;28;19940;-72
2022/04/27 09:32:03;;;;;;;;;;;;;;;;;;5066429;28;19936;-72
2022/04/27 09:34:29;;;;;;;;;;;;;;;;;;5058520;28;20023;-72
2022/04/27 09:36:56;;;;;;;;;;;;;;;;;;5066062;28;19932;-73
2022/04/27 09:39:22;;;;;;;;;;;;;;;;;;5066603;28;19935;-73
2022/04/27 09:41:49;;;;;;;;;;;;;;;;;;5063538;28;19924;-72
2022/04/27 09:44:15;;;;;;;;;;;;;;;;;;5063074;28;20449;-73
2022/04/27 09:46:44;;;;;;;;;;;;;;;;;;5058891;28;20371;-73
2022/04/27 09:49:11;;;;;;;;;;;;;;;;;;5058435;28;19928;-71
2022/04/27 09:51:37;;;;;;;;;;;;;;;;;;5062640;28;19924;-72
2022/04/27 09:54:03;;;;;;;;;;;;;;;;;;5063042;28;20376;-72
2022/04/27 09:56:31;;;;;;;;;;;;;;;;;;5062372;28;19932;-71
2022/04/27 09:58:59;;;;;;;;;;;;;;;;;;5062237;28;20010;-71
2022/04/27 10:01:26;;;;;;;;;;;;;;;;;;5062244;28;20387;-71
2022/04/27 10:03:56;;;;;;;;;;;;;;;;;;5060901;28;19929;-72
2022/04/27 10:06:23;;;;;;;;;;;;;;;;;;5062292;28;19932;-72
2022/04/27 10:08:51;;;;;;;;;;;;;;;;;;5063191;28;19928;-74
2022/04/27 10:11:17;;;;;;;;;;;;;;;;;;5062071;28;19970;-72
2022/04/27 10:13:44;;;;;;;;;;;;;;;;;;5062653;28;20504;-72
2022/04/27 10:16:10;;;;;;;;;;;;;;;;;;5060918;28;20001;-72
2022/04/27 10:18:36;;;;;;;;;;;;;;;;;;5055391;28;19925;-72
2022/04/27 10:21:04;;;;;;;;;;;;;;;;;;5067198;28;19929;-72
2022/04/27 10:23:32;;;;;;;;;;;;;;;;;;5067125;28;20015;-73
2022/04/27 10:25:58;;;;;;;;;;;;;;;;;;5068722;28;20005;-71
2022/04/27 10:28:24;;;;;;;;;;;;;;;;;;5064403;28;20383;-74
2022/04/27 10:30:51;;;;;;;;;;;;;;;;;;5067599;28;20417;-71
2022/04/27 10:33:17;;;;;;;;;;;;;;;;;;5068257;28;19935;-71
2022/04/27 10:35:43;;;;;;;;;;;;;;;;;;5071254;28;19931;-72
2022/04/27 10:38:09;;;;;;;;;;;;;;;;;;5063533;28;19935;-72
2022/04/27 10:40:35;;;;;;;;;;;;;;;;;;5070449;28;19951;-71
2022/04/27 10:43:01;;;;;;;;;;;;;;;;;;5067993;28;20024;-71
2022/04/27 10:45:27;;;;;;;;;;;;;;;;;;5064676;28;19936;-72
2022/04/27 10:47:53;;;;;;;;;;;;;;;;;;5071270;28;19940;-72
2022/04/27 10:50:20;;;;;;;;;;;;;;;;;;5070667;28;19935;-71
2022/04/27 10:52:50;;;;;;;;;;;;;;;;;;5069484;28;19928;-72
2022/04/27 10:55:17;;;;;;;;;;;;;;;;;;5066507;28;19938;-71
2022/04/27 10:57:43;;;;;;;;;;;;;;;;;;5063798;28;19935;-71
2022/04/27 11:00:09;;;;;;;;;;;;;;;;;;5065960;28;19932;-71
2022/04/27 11:02:35;;;;;;;;;;;;;;;;;;5065310;28;19972;-71
2022/04/27 11:05:01;;;;;;;;;;;;;;;;;;5065249;28;19929;-73
2022/04/27 11:07:27;;;;;;;;;;;;;;;;;;5066650;28;20041;-71
2022/04/27 11:09:53;;;;;;;;;;;;;;;;;;5065422;28;19928;-71
2022/04/27 11:12:20;;;;;;;;;;;;;;;;;;5065076;28;20334;-71
2022/04/27 11:14:46;;;;;;;;;;;;;;;;;;5065776;28;19928;-70
2022/04/27 11:17:13;;;;;;;;;;;;;;;;;;5059268;28;19932;-72
2022/04/27 11:19:41;;;;;;;;;;;;;;;;;;5062356;28;19939;-70
2022/04/27 11:22:07;;;;;;;;;;;;;;;;;;5064940;28;19928;-71
2022/04/27 11:24:34;;;;;;;;;;;;;;;;;;5065494;28;19959;-73
2022/04/27 11:27:00;;;;;;;;;;;;;;;;;;5066422;28;19932;-71
2022/04/27 11:29:26;;;;;;;;;;;;;;;;;;5064620;28;19925;-71
2022/04/27 11:31:52;;;;;;;;;;;;;;;;;;5063926;28;19936;-73
2022/04/27 11:34:18;;;;;;;;;;;;;;;;;;5063693;28;19928;-71
2022/04/27 11:36:46;;;;;;;;;;;;;;;;;;5065784;28;19932;-72
2022/04/27 11:39:12;;;;;;;;;;;;;;;;;;5065873;28;20015;-72
2022/04/27 11:41:38;;;;;;;;;;;;;;;;;;5064851;28;19925;-73
2022/04/27 11:44:04;;;;;;;;;;;;;;;;;;5058770;28;19928;-71
2022/04/27 11:46:30;;;;;;;;;;;;;;;;;;5061583;28;19936;-71
2022/04/27 11:48:56;;;;;;;;;;;;;;;;;;5061185;28;19929;-73
2022/04/27 11:51:22;;;;;;;;;;;;;;;;;;5060057;28;19928;-72
2022/04/27 11:53:49;;;;;;;;;;;;;;;;;;5065016;28;19932;-72
2022/04/27 11:56:15;;;;;;;;;;;;;;;;;;5065295;28;19928;-74
2022/04/27 11:58:41;;;;;;;;;;;;;;;;;;5063719;28;19928;-74
2022/04/27 12:01:08;;;;;;;;;;;;;;;;;;5061472;28;19986;-74
2022/04/27 12:03:34;;;;;;;;;;;;;;;;;;5065140;28;19939;-72
2022/04/27 12:06:00;;;;;;;;;;;;;;;;;;5065155;28;19928;-73
2022/04/27 12:08:26;;;;;;;;;;;;;;;;;;5060957;28;19925;-72
2022/04/27 12:10:53;;;;;;;;;;;;;;;;;;5063614;28;19940;-72
2022/04/27 12:13:19;;;;;;;;;;;;;;;;;;5064305;28;19935;-73
2022/04/27 12:15:47;;;;;;;;;;;;;;;;;;5063736;28;19928;-72
2022/04/27 12:18:13;;;;;;;;;;;;;;;;;;5055828;28;19928;-77
2022/04/27 12:20:40;;;;;;;;;;;;;;;;;;5064247;28;19924;-72
2022/04/27 12:23:09;;;;;;;;;;;;;;;;;;5063372;28;19972;-73
2022/04/27 12:25:35;;;;;;;;;;;;;;;;;;5061844;28;19932;-72
2022/04/27 12:28:01;;;;;;;;;;;;;;;;;;5057858;28;20008;-73
2022/04/27 12:30:27;;;;;;;;;;;;;;;;;;5062821;28;19963;-71
2022/04/27 12:32:54;;;;;;;;;;;;;;;;;;5062878;28;19936;-71
2022/04/27 12:38:04;;;;;;;;;;;;;;;;;;5063177;28;19997;-71
2022/04/27 12:40:30;;;;;;;;;;;;;;;;;;5064791;28;19928;-72
2022/04/27 12:42:56;;;;;;;;;;;;;;;;;;5063344;28;19935;-72
2022/04/27 12:45:22;;;;;;;;;;;;;;;;;;5057683;28;19929;-72
2022/04/27 12:47:50;;;;;;;;;;;;;;;;;;5059574;28;20497;-72
2022/04/27 12:50:16;;;;;;;;;;;;;;;;;;5062798;28;20384;-72
2022/04/27 12:52:45;;;;;;;;;;;;;;;;;;5063615;28;20544;-72
2022/04/27 12:55:11;;;;;;;;;;;;;;;;;;5064297;28;19928;-72
2022/04/27 12:57:37;;;;;;;;;;;;;;;;;;5061933;28;19929;-72
2022/04/27 13:00:03;;;;;;;;;;;;;;;;;;5063251;28;19936;-72
2022/04/27 13:02:30;;;;;;;;;;;;;;;;;;5063665;28;20852;-73
2022/04/27 13:04:56;;;;;;;;;;;;;;;;;;5061549;28;19928;-71
2022/04/27 13:07:23;;;;;;;;;;;;;;;;;;5076567;28;19931;-70
2022/04/27 13:12:33;;;;;;;;;;;;;;;;;;5061731;28;19923;-71
2022/04/27 13:14:59;;;;;;;;;;;;;;;;;;5064815;28;19939;-72
2022/04/27 13:17:25;;;;;;;;;;;;;;;;;;5057438;28;19932;-73
2022/04/27 13:19:51;;;;;;;;;;;;;;;;;;5053710;28;19937;-73
2022/04/27 13:22:17;;;;;;;;;;;;;;;;;;5063427;28;19992;-71
2022/04/27 13:24:43;;;;;;;;;;;;;;;;;;5059634;28;19934;-72
2022/04/27 13:27:10;;;;;;;;;;;;;;;;;;5065019;28;19924;-73
2022/04/27 13:29:36;;;;;;;;;;;;;;;;;;5059318;28;19932;-71
2022/04/27 13:32:02;;;;;;;;;;;;;;;;;;5066430;28;19924;-72
2022/04/27 13:34:29;;;;;;;;;;;;;;;;;;5065844;28;19950;-73
2022/04/27 13:36:55;;;;;;;;;;;;;;;;;;5065938;28;20348;-72
2022/04/27 13:39:21;;;;;;;;;;;;;;;;;;5067539;28;20015;-72
2022/04/27 13:41:48;;;;;;;;;;;;;;;;;;5065326;28;19928;-72
2022/04/27 13:44:14;;;;;;;;;;;;;;;;;;5059009;28;19928;-71
2022/04/27 13:46:40;;;;;;;;;;;;;;;;;;5059976;28;19925;-73
2022/04/27 13:49:06;;;;;;;;;;;;;;;;;;5061936;28;19925;-71
2022/04/27 13:51:34;;;;;;;;;;;;;;;;;;5066998;28;19928;-71
2022/04/27 13:54:01;;;;;;;;;;;;;;;;;;5070543;28;19924;-71
2022/04/27 13:56:27;;;;;;;;;;;;;;;;;;5069099;28;19928;-71
2022/04/27 13:58:53;;;;;;;;;;;;;;;;;;5069249;28;20014;-71
2022/04/27 14:01:19;;;;;;;;;;;;;;;;;;5071145;28;19931;-70
2022/04/27 14:03:46;;;;;;;;;;;;;;;;;;5067900;28;19925;-71
2022/04/27 14:06:12;;;;;;;;;;;;;;;;;;5069152;28;19925;-72
2022/04/27 14:08:38;;;;;;;;;;;;;;;;;;5073878;28;19936;-73
2022/04/27 14:11:04;;;;;;;;;;;;;;;;;;5070760;28;19935;-72
2022/04/27 14:13:30;;;;;;;;;;;;;;;;;;4715656;28;10000623;-72
2022/04/27 14:18:40;;;;;;;;;;;;;;;;;;5062716;28;19918;-73
2022/04/27 14:21:06;;;;;;;;;;;;;;;;;;5060944;28;19928;-72
2022/04/27 14:23:32;;;;;;;;;;;;;;;;;;5055505;28;19933;-71
2022/04/27 14:25:58;;;;;;;;;;;;;;;;;;5063381;28;19940;-72
2022/04/27 14:28:24;;;;;;;;;;;;;;;;;;5063536;28;19936;-71
2022/04/27 14:30:50;;;;;;;;;;;;;;;;;;5064701;28;19935;-72
2022/04/27 14:33:17;;;;;;;;;;;;;;;;;;5061364;28;19971;-71
2022/04/27 14:35:44;;;;;;;;;;;;;;;;;;5064051;28;20700;-72
2022/04/27 14:38:10;;;;;;;;;;;;;;;;;;5064621;28;19928;-71
2022/04/27 14:40:36;;;;;;;;;;;;;;;;;;5059224;28;20465;-72
2022/04/27 14:43:03;;;;;;;;;;;;;;;;;;5061846;28;20268;-69
2022/04/27 14:45:31;;;;;;;;;;;;;;;;;;5061269;28;19962;-71
2022/04/27 14:47:57;;;;;;;;;;;;;;;;;;5061800;28;19928;-69
2022/04/27 14:50:24;;;;;;;;;;;;;;;;;;5064932;28;19932;-71
2022/04/27 14:52:50;;;;;;;;;;;;;;;;;;5063945;28;19928;-72
2022/04/27 14:55:17;;;;;;;;;;;;;;;;;;5066694;28;19932;-72
2022/04/27 14:57:43;;;;;;;;;;;;;;;;;;5065619;28;20057;-72
2022/04/27 15:00:09;;;;;;;;;;;;;;;;;;4713906;28;9999796;-71
2022/04/27 15:02:35;;;;;;;;;;;;;;;;;;5065288;28;19993;-70
2022/04/27 15:05:02;;;;;;;;;;;;;;;;;;5059233;28;19933;-71
2022/04/27 15:07:28;;;;;;;;;;;;;;;;;;5065171;28;19932;-72
2022/04/27 15:09:54;;;;;;;;;;;;;;;;;;5064371;28;19928;-73
2022/04/27 15:12:20;;;;;;;;;;;;;;;;;;5063802;28;19928;-72
2022/04/27 15:14:46;;;;;;;;;;;;;;;;;;5064889;28;20480;-72
2022/04/27 15:17:12;;;;;;;;;;;;;;;;;;5074811;22;20384;-74
2022/04/27 15:19:39;;;;;;;;;;;;;;;;;;5068612;28;19928;-74
2022/04/27 15:24:48;;;;;;;;;;;;;;;;;;5066601;28;19919;-73
2022/04/27 15:27:15;;;;;;;;;;;;;;;;;;4712591;28;10000197;-74
2022/04/27 15:29:41;;;;;;;;;;;;;;;;;;5061997;28;19928;-74
2022/04/27 15:32:07;;;;;;;;;;;;;;;;;;5062737;28;19932;-75
2022/04/27 15:34:34;;;;;;;;;;;;;;;;;;5058394;28;19928;-74
2022/04/27 15:37:00;;;;;;;;;;;;;;;;;;5063849;28;20019;-73
2022/04/27 15:39:27;;;;;;;;;;;;;;;;;;5064763;28;19928;-75
2022/04/27 15:41:53;;;;;;;;;;;;;;;;;;5064191;28;19935;-75
2022/04/27 15:44:19;;;;;;;;;;;;;;;;;;5054324;28;19936;-75
2022/04/27 15:46:45;;;;;;;;;;;;;;;;;;5065640;28;19928;-74
2022/04/27 15:49:12;;;;;;;;;;;;;;;;;;5060355;28;19924;-73
2022/04/27 15:51:38;;;;;;;;;;;;;;;;;;5065427;28;19938;-73
2022/04/27 15:54:04;;;;;;;;;;;;;;;;;;5062394;28;19935;-73
2022/04/27 15:56:30;;;;;;;;;;;;;;;;;;5053253;28;19924;-76
2022/04/27 15:59:01;;;;;;;;;;;;;;;;;;5061589;28;20026;-76
2022/04/27 16:01:27;;;;;;;;;;;;;;;;;;5057732;28;20570;-74
2022/04/27 16:03:54;;;;;;;;;;;;;;;;;;5048797;28;19928;-74
2022/04/27 16:06:20;;;;;;;;;;;;;;;;;;5059760;28;19928;-75
2022/04/27 16:08:46;;;;;;;;;;;;;;;;;;5064996;28;19935;-75
2022/04/27 16:11:12;;;;;;;;;;;;;;;;;;5059867;28;19929;-74
2022/04/27 16:13:38;;;;;;;;;;;;;;;;;;5055751;28;19928;-75
2022/04/27 16:16:04;;;;;;;;;;;;;;;;;;5061348;28;20231;-76
2022/04/27 16:18:30;;;;;;;;;;;;;;;;;;5056136;28;19928;-75
2022/04/27 16:23:40;;;;;;;;;;;;;;;;;;5058765;28;20335;-75
2022/04/27 16:26:07;;;;;;;;;;;;;;;;;;5044915;28;20458;-74
2022/04/27 16:28:33;;;;;;;;;;;;;;;;;;5046334;28;19960;-74
2022/04/27 16:30:59;;;;;;;;;;;;;;;;;;5065288;28;19928;-75
2022/04/27 16:33:25;;;;;;;;;;;;;;;;;;5060375;28;20148;-74
2022/04/27 16:35:51;;;;;;;;;;;;;;;;;;5060310;28;20391;-75
2022/04/27 16:38:17;;;;;;;;;;;;;;;;;;5060418;28;19960;-73
2022/04/27 16:40:44;;;;;;;;;;;;;;;;;;5065079;28;19928;-75
2022/04/27 16:43:12;;;;;;;;;;;;;;;;;;5064848;28;20217;-76
2022/04/27 16:45:38;;;;;;;;;;;;;;;;;;5066663;28;19930;-75
2022/04/27 16:48:04;;;;;;;;;;;;;;;;;;5065077;28;19928;-75
2022/04/27 16:50:31;;;;;;;;;;;;;;;;;;5062715;28;19925;-75
2022/04/27 16:52:57;;;;;;;;;;;;;;;;;;5061706;28;19925;-75
2022/04/27 16:55:23;;;;;;;;;;;;;;;;;;5063691;28;19928;-76
2022/04/27 16:57:49;;;;;;;;;;;;;;;;;;5062167;28;19925;-75
2022/04/27 17:02:59;;;;;;;;;;;;;;;;;;5053320;28;20365;-73
2022/04/27 17:05:26;;;;;;;;;;;;;;;;;;5058117;28;19935;-73
2022/04/27 17:07:52;;;;;;;;;;;;;;;;;;5061331;28;19966;-74
2022/04/27 17:10:19;;;;;;;;;;;;;;;;;;5060321;28;19928;-73
2022/04/27 17:12:45;;;;;;;;;;;;;;;;;;5059757;28;19935;-73
2022/04/27 17:15:11;;;;;;;;;;;;;;;;;;5060023;28;19935;-74
2022/04/27 17:17:37;;;;;;;;;;;;;;;;;;5058959;28;19936;-74